sensor_id;sensor_type;location;lat;lon;timestamp;P1;durP1;ratioP1;P2;durP2;ratioP2
6987;SDS011;3534;49.960;8.018;2023-05-08T00:00:58;5.73;;;4.40;;
6987;SDS011;3534;49.960;8.018;2023-05-08T00:03:25;5.33;;;4.80;;
6987;SDS011;3534;49.960;8.018;2023-05-08T00:05:51;4.57;;;4.17;;
6987;SDS011;3534;49.960;8.018;2023-05-08T00:08:20;5.93;;;4.23;;
6987;SDS011;3534;49.960;8.018;2023-05-08T00:10:47;6.10;;;5.17;;
6987;SDS011;3534;49.960;8.018;2023-05-08T00:13:15;7.17;;;5.20;;
6987;SDS011;3534;49.960;8.018;2023-05-08T00:15:41;7.70;;;6.90;;
6987;SDS011;3534;49.960;8.018;2023-05-08T00:18:08;9.63;;;6.90;;
6987;SDS011;3534;49.960;8.018;2023-05-08T00:20:35;8.70;;;7.40;;
6987;SDS011;3534;49.960;8.018;2023-05-08T00:23:02;8.13;;;6.60;;
6987;SDS011;3534;49.960;8.018;2023-05-08T00:25:30;7.63;;;6.00;;
6987;SDS011;3534;49.960;8.018;2023-05-08T00:27:57;6.50;;;5.90;;
6987;SDS011;3534;49.960;8.018;2023-05-08T00:30:23;7.17;;;6.47;;
6987;SDS011;3534;49.960;8.018;2023-05-08T00:32:50;9.23;;;6.60;;
6987;SDS011;3534;49.960;8.018;2023-05-08T00:35:17;8.23;;;7.43;;
6987;SDS011;3534;49.960;8.018;2023-05-08T00:37:44;11.03;;;7.00;;
6987;SDS011;3534;49.960;8.018;2023-05-08T00:40:11;10.67;;;7.47;;
6987;SDS011;3534;49.960;8.018;2023-05-08T00:42:39;11.17;;;7.40;;
6987;SDS011;3534;49.960;8.018;2023-05-08T00:45:06;9.93;;;8.90;;
6987;SDS011;3534;49.960;8.018;2023-05-08T00:47:33;10.30;;;8.93;;
6987;SDS011;3534;49.960;8.018;2023-05-08T00:50:00;9.53;;;8.63;;
6987;SDS011;3534;49.960;8.018;2023-05-08T00:52:28;8.13;;;7.33;;
6987;SDS011;3534;49.960;8.018;2023-05-08T00:54:58;9.73;;;5.83;;
6987;SDS011;3534;49.960;8.018;2023-05-08T00:57:25;10.30;;;6.50;;
6987;SDS011;3534;49.960;8.018;2023-05-08T00:59:54;10.23;;;5.33;;
6987;SDS011;3534;49.960;8.018;2023-05-08T01:02:21;8.87;;;5.27;;
6987;SDS011;3534;49.960;8.018;2023-05-08T01:04:48;9.33;;;5.90;;
6987;SDS011;3534;49.960;8.018;2023-05-08T01:07:17;5.80;;;5.30;;
6987;SDS011;3534;49.960;8.018;2023-05-08T01:09:44;6.33;;;5.73;;
6987;SDS011;3534;49.960;8.018;2023-05-08T01:12:13;9.93;;;5.47;;
6987;SDS011;3534;49.960;8.018;2023-05-08T01:14:50;5.80;;;4.90;;
6987;SDS011;3534;49.960;8.018;2023-05-08T01:17:26;9.60;;;5.73;;
6987;SDS011;3534;49.960;8.018;2023-05-08T01:20:04;6.50;;;5.20;;
6987;SDS011;3534;49.960;8.018;2023-05-08T01:22:43;6.47;;;5.40;;
6987;SDS011;3534;49.960;8.018;2023-05-08T01:25:36;7.57;;;5.70;;
6987;SDS011;3534;49.960;8.018;2023-05-08T01:31:29;13.80;;;7.80;;
6987;SDS011;3534;49.960;8.018;2023-05-08T01:34:09;9.50;;;6.57;;
6987;SDS011;3534;49.960;8.018;2023-05-08T01:36:41;7.10;;;6.33;;
6987;SDS011;3534;49.960;8.018;2023-05-08T01:39:16;7.20;;;6.50;;
6987;SDS011;3534;49.960;8.018;2023-05-08T01:41:46;8.53;;;6.70;;
6987;SDS011;3534;49.960;8.018;2023-05-08T01:44:21;7.77;;;7.07;;
6987;SDS011;3534;49.960;8.018;2023-05-08T01:46:53;13.70;;;6.50;;
6987;SDS011;3534;49.960;8.018;2023-05-08T01:49:23;8.50;;;5.93;;
6987;SDS011;3534;49.960;8.018;2023-05-08T01:51:55;7.47;;;6.67;;
6987;SDS011;3534;49.960;8.018;2023-05-08T01:54:27;7.30;;;6.30;;
6987;SDS011;3534;49.960;8.018;2023-05-08T01:56:58;7.13;;;6.40;;
6987;SDS011;3534;49.960;8.018;2023-05-08T01:59:26;8.07;;;7.23;;
6987;SDS011;3534;49.960;8.018;2023-05-08T02:01:56;8.37;;;7.57;;
6987;SDS011;3534;49.960;8.018;2023-05-08T02:04:27;11.20;;;7.20;;
6987;SDS011;3534;49.960;8.018;2023-05-08T02:06:54;8.87;;;7.97;;
6987;SDS011;3534;49.960;8.018;2023-05-08T02:09:22;10.43;;;9.33;;
6987;SDS011;3534;49.960;8.018;2023-05-08T02:11:50;11.70;;;9.37;;
6987;SDS011;3534;49.960;8.018;2023-05-08T02:14:18;12.90;;;10.17;;
6987;SDS011;3534;49.960;8.018;2023-05-08T02:16:46;17.70;;;11.17;;
6987;SDS011;3534;49.960;8.018;2023-05-08T02:19:15;14.37;;;11.63;;
6987;SDS011;3534;49.960;8.018;2023-05-08T02:21:46;14.90;;;11.30;;
6987;SDS011;3534;49.960;8.018;2023-05-08T02:24:14;11.60;;;10.33;;
6987;SDS011;3534;49.960;8.018;2023-05-08T02:26:42;14.33;;;10.80;;
6987;SDS011;3534;49.960;8.018;2023-05-08T02:29:10;12.80;;;10.70;;
6987;SDS011;3534;49.960;8.018;2023-05-08T02:31:37;13.07;;;10.20;;
6987;SDS011;3534;49.960;8.018;2023-05-08T02:34:04;14.33;;;10.43;;
6987;SDS011;3534;49.960;8.018;2023-05-08T02:36:34;14.07;;;11.37;;
6987;SDS011;3534;49.960;8.018;2023-05-08T02:39:03;13.80;;;11.07;;
6987;SDS011;3534;49.960;8.018;2023-05-08T02:41:33;13.90;;;9.87;;
6987;SDS011;3534;49.960;8.018;2023-05-08T02:44:01;12.97;;;10.30;;
6987;SDS011;3534;49.960;8.018;2023-05-08T02:46:29;13.67;;;11.10;;
6987;SDS011;3534;49.960;8.018;2023-05-08T02:49:02;13.60;;;11.00;;
6987;SDS011;3534;49.960;8.018;2023-05-08T02:54:24;15.57;;;10.53;;
6987;SDS011;3534;49.960;8.018;2023-05-08T02:57:00;16.53;;;9.67;;
6987;SDS011;3534;49.960;8.018;2023-05-08T02:59:35;12.13;;;8.80;;
6987;SDS011;3534;49.960;8.018;2023-05-08T03:02:05;10.70;;;8.63;;
6987;SDS011;3534;49.960;8.018;2023-05-08T03:04:39;9.40;;;7.80;;
6987;SDS011;3534;49.960;8.018;2023-05-08T03:07:14;9.90;;;7.60;;
6987;SDS011;3534;49.960;8.018;2023-05-08T03:09:46;10.70;;;7.80;;
6987;SDS011;3534;49.960;8.018;2023-05-08T03:12:16;10.30;;;7.53;;
6987;SDS011;3534;49.960;8.018;2023-05-08T03:14:50;10.17;;;8.77;;
6987;SDS011;3534;49.960;8.018;2023-05-08T03:17:21;10.53;;;6.97;;
6987;SDS011;3534;49.960;8.018;2023-05-08T03:19:51;8.67;;;7.73;;
6987;SDS011;3534;49.960;8.018;2023-05-08T03:22:22;10.57;;;7.80;;
6987;SDS011;3534;49.960;8.018;2023-05-08T03:24:52;9.50;;;6.43;;
6987;SDS011;3534;49.960;8.018;2023-05-08T03:27:20;7.40;;;6.70;;
6987;SDS011;3534;49.960;8.018;2023-05-08T03:29:48;9.47;;;8.57;;
6987;SDS011;3534;49.960;8.018;2023-05-08T03:32:16;10.17;;;7.30;;
6987;SDS011;3534;49.960;8.018;2023-05-08T03:34:44;10.67;;;7.57;;
6987;SDS011;3534;49.960;8.018;2023-05-08T03:37:12;8.10;;;7.17;;
6987;SDS011;3534;49.960;8.018;2023-05-08T03:39:39;11.03;;;7.63;;
6987;SDS011;3534;49.960;8.018;2023-05-08T03:42:07;10.97;;;7.70;;
6987;SDS011;3534;49.960;8.018;2023-05-08T03:44:34;9.50;;;7.50;;
6987;SDS011;3534;49.960;8.018;2023-05-08T03:47:02;7.93;;;7.13;;
6987;SDS011;3534;49.960;8.018;2023-05-08T03:49:30;7.30;;;6.60;;
6987;SDS011;3534;49.960;8.018;2023-05-08T03:51:58;8.43;;;6.73;;
6987;SDS011;3534;49.960;8.018;2023-05-08T03:54:26;14.03;;;6.53;;
6987;SDS011;3534;49.960;8.018;2023-05-08T03:56:54;9.00;;;6.80;;
6987;SDS011;3534;49.960;8.018;2023-05-08T03:59:23;10.03;;;6.87;;
6987;SDS011;3534;49.960;8.018;2023-05-08T04:01:58;7.47;;;6.67;;
6987;SDS011;3534;49.960;8.018;2023-05-08T04:04:37;9.70;;;6.83;;
6987;SDS011;3534;49.960;8.018;2023-05-08T04:07:07;7.97;;;6.60;;
6987;SDS011;3534;49.960;8.018;2023-05-08T04:09:38;8.67;;;6.87;;
6987;SDS011;3534;49.960;8.018;2023-05-08T04:12:12;7.07;;;6.30;;
6987;SDS011;3534;49.960;8.018;2023-05-08T04:14:44;8.43;;;7.00;;
6987;SDS011;3534;49.960;8.018;2023-05-08T04:17:16;6.80;;;6.13;;
6987;SDS011;3534;49.960;8.018;2023-05-08T04:19:50;7.40;;;6.33;;
6987;SDS011;3534;49.960;8.018;2023-05-08T04:22:20;6.70;;;6.10;;
6987;SDS011;3534;49.960;8.018;2023-05-08T04:24:50;10.20;;;7.40;;
6987;SDS011;3534;49.960;8.018;2023-05-08T04:27:22;7.10;;;6.40;;
6987;SDS011;3534;49.960;8.018;2023-05-08T04:29:52;7.67;;;6.87;;
6987;SDS011;3534;49.960;8.018;2023-05-08T04:32:20;11.80;;;7.70;;
6987;SDS011;3534;49.960;8.018;2023-05-08T04:34:47;8.00;;;7.10;;
6987;SDS011;3534;49.960;8.018;2023-05-08T04:37:21;9.90;;;6.50;;
6987;SDS011;3534;49.960;8.018;2023-05-08T04:39:49;7.43;;;6.73;;
6987;SDS011;3534;49.960;8.018;2023-05-08T04:42:16;7.23;;;6.57;;
6987;SDS011;3534;49.960;8.018;2023-05-08T04:44:43;7.03;;;6.33;;
6987;SDS011;3534;49.960;8.018;2023-05-08T04:47:11;7.10;;;6.50;;
6987;SDS011;3534;49.960;8.018;2023-05-08T04:49:37;9.63;;;6.57;;
6987;SDS011;3534;49.960;8.018;2023-05-08T04:52:04;9.00;;;7.10;;
6987;SDS011;3534;49.960;8.018;2023-05-08T04:54:31;8.73;;;6.80;;
6987;SDS011;3534;49.960;8.018;2023-05-08T04:56:58;6.63;;;6.03;;
6987;SDS011;3534;49.960;8.018;2023-05-08T04:59:25;8.33;;;7.37;;
6987;SDS011;3534;49.960;8.018;2023-05-08T05:01:53;10.90;;;9.00;;
6987;SDS011;3534;49.960;8.018;2023-05-08T05:04:21;7.83;;;7.00;;
6987;SDS011;3534;49.960;8.018;2023-05-08T05:06:48;10.73;;;7.17;;
6987;SDS011;3534;49.960;8.018;2023-05-08T05:09:14;10.17;;;6.33;;
6987;SDS011;3534;49.960;8.018;2023-05-08T05:11:41;7.47;;;6.43;;
6987;SDS011;3534;49.960;8.018;2023-05-08T05:14:08;7.40;;;6.00;;
6987;SDS011;3534;49.960;8.018;2023-05-08T05:16:35;11.20;;;6.33;;
6987;SDS011;3534;49.960;8.018;2023-05-08T05:19:02;6.23;;;5.63;;
6987;SDS011;3534;49.960;8.018;2023-05-08T05:21:30;6.53;;;5.93;;
6987;SDS011;3534;49.960;8.018;2023-05-08T05:23:56;7.43;;;6.40;;
6987;SDS011;3534;49.960;8.018;2023-05-08T05:26:23;15.33;;;7.50;;
6987;SDS011;3534;49.960;8.018;2023-05-08T05:28:50;8.23;;;6.30;;
6987;SDS011;3534;49.960;8.018;2023-05-08T05:31:17;21.03;;;6.30;;
6987;SDS011;3534;49.960;8.018;2023-05-08T05:33:43;23.30;;;14.63;;
6987;SDS011;3534;49.960;8.018;2023-05-08T05:36:10;8.20;;;6.77;;
6987;SDS011;3534;49.960;8.018;2023-05-08T05:38:38;7.30;;;6.63;;
6987;SDS011;3534;49.960;8.018;2023-05-08T05:41:05;9.57;;;6.60;;
6987;SDS011;3534;49.960;8.018;2023-05-08T05:43:32;6.73;;;5.70;;
6987;SDS011;3534;49.960;8.018;2023-05-08T05:46:02;10.07;;;6.30;;
6987;SDS011;3534;49.960;8.018;2023-05-08T05:48:29;7.10;;;5.97;;
6987;SDS011;3534;49.960;8.018;2023-05-08T05:50:56;8.50;;;6.63;;
6987;SDS011;3534;49.960;8.018;2023-05-08T05:53:23;7.97;;;7.03;;
6987;SDS011;3534;49.960;8.018;2023-05-08T05:55:51;7.37;;;6.67;;
6987;SDS011;3534;49.960;8.018;2023-05-08T05:58:18;7.43;;;5.97;;
6987;SDS011;3534;49.960;8.018;2023-05-08T06:00:44;10.03;;;6.80;;
6987;SDS011;3534;49.960;8.018;2023-05-08T06:03:12;10.77;;;7.20;;
6987;SDS011;3534;49.960;8.018;2023-05-08T06:05:39;14.33;;;6.87;;
6987;SDS011;3534;49.960;8.018;2023-05-08T06:08:06;12.13;;;6.57;;
6987;SDS011;3534;49.960;8.018;2023-05-08T06:10:33;10.60;;;6.50;;
6987;SDS011;3534;49.960;8.018;2023-05-08T06:13:01;8.93;;;7.80;;
6987;SDS011;3534;49.960;8.018;2023-05-08T06:15:28;7.70;;;6.90;;
6987;SDS011;3534;49.960;8.018;2023-05-08T06:17:55;10.73;;;7.00;;
6987;SDS011;3534;49.960;8.018;2023-05-08T06:20:22;10.13;;;7.37;;
6987;SDS011;3534;49.960;8.018;2023-05-08T06:22:48;7.70;;;6.70;;
6987;SDS011;3534;49.960;8.018;2023-05-08T06:25:15;13.40;;;7.80;;
6987;SDS011;3534;49.960;8.018;2023-05-08T06:27:43;8.43;;;7.33;;
6987;SDS011;3534;49.960;8.018;2023-05-08T06:30:11;8.50;;;7.10;;
6987;SDS011;3534;49.960;8.018;2023-05-08T06:32:38;8.87;;;8.03;;
6987;SDS011;3534;49.960;8.018;2023-05-08T06:35:05;7.80;;;7.10;;
6987;SDS011;3534;49.960;8.018;2023-05-08T06:37:33;13.00;;;7.13;;
6987;SDS011;3534;49.960;8.018;2023-05-08T06:39:59;9.37;;;7.80;;
6987;SDS011;3534;49.960;8.018;2023-05-08T06:42:26;7.83;;;6.83;;
6987;SDS011;3534;49.960;8.018;2023-05-08T06:44:53;8.73;;;7.83;;
6987;SDS011;3534;49.960;8.018;2023-05-08T06:47:21;11.63;;;7.97;;
6987;SDS011;3534;49.960;8.018;2023-05-08T06:49:47;8.77;;;7.87;;
6987;SDS011;3534;49.960;8.018;2023-05-08T06:52:14;10.33;;;7.83;;
6987;SDS011;3534;49.960;8.018;2023-05-08T06:54:41;9.30;;;8.40;;
6987;SDS011;3534;49.960;8.018;2023-05-08T06:57:07;8.00;;;7.20;;
6987;SDS011;3534;49.960;8.018;2023-05-08T06:59:35;11.63;;;7.90;;
6987;SDS011;3534;49.960;8.018;2023-05-08T07:02:02;13.67;;;8.40;;
6987;SDS011;3534;49.960;8.018;2023-05-08T07:04:29;8.87;;;8.03;;
6987;SDS011;3534;49.960;8.018;2023-05-08T07:06:57;8.60;;;7.77;;
6987;SDS011;3534;49.960;8.018;2023-05-08T07:09:24;12.10;;;8.50;;
6987;SDS011;3534;49.960;8.018;2023-05-08T07:11:51;9.50;;;8.50;;
6987;SDS011;3534;49.960;8.018;2023-05-08T07:14:17;9.37;;;7.90;;
6987;SDS011;3534;49.960;8.018;2023-05-08T07:16:44;9.93;;;8.27;;
6987;SDS011;3534;49.960;8.018;2023-05-08T07:19:11;9.53;;;8.03;;
6987;SDS011;3534;49.960;8.018;2023-05-08T07:21:39;8.83;;;7.57;;
6987;SDS011;3534;49.960;8.018;2023-05-08T07:24:05;9.63;;;8.70;;
6987;SDS011;3534;49.960;8.018;2023-05-08T07:26:32;10.20;;;8.40;;
6987;SDS011;3534;49.960;8.018;2023-05-08T07:28:59;10.93;;;8.80;;
6987;SDS011;3534;49.960;8.018;2023-05-08T07:31:26;11.57;;;9.37;;
6987;SDS011;3534;49.960;8.018;2023-05-08T07:33:53;10.07;;;9.07;;
6987;SDS011;3534;49.960;8.018;2023-05-08T07:36:19;10.80;;;8.90;;
6987;SDS011;3534;49.960;8.018;2023-05-08T07:38:48;11.43;;;7.33;;
6987;SDS011;3534;49.960;8.018;2023-05-08T07:41:15;8.70;;;7.80;;
6987;SDS011;3534;49.960;8.018;2023-05-08T07:43:41;9.17;;;8.27;;
6987;SDS011;3534;49.960;8.018;2023-05-08T07:46:14;14.80;;;8.53;;
6987;SDS011;3534;49.960;8.018;2023-05-08T07:48:41;8.80;;;7.90;;
6987;SDS011;3534;49.960;8.018;2023-05-08T07:51:08;9.70;;;8.70;;
6987;SDS011;3534;49.960;8.018;2023-05-08T07:53:36;9.17;;;8.27;;
6987;SDS011;3534;49.960;8.018;2023-05-08T07:56:04;8.40;;;7.60;;
6987;SDS011;3534;49.960;8.018;2023-05-08T07:58:31;8.97;;;8.17;;
6987;SDS011;3534;49.960;8.018;2023-05-08T08:00:58;8.80;;;7.90;;
6987;SDS011;3534;49.960;8.018;2023-05-08T08:03:25;8.50;;;7.70;;
6987;SDS011;3534;49.960;8.018;2023-05-08T08:05:52;10.30;;;8.67;;
6987;SDS011;3534;49.960;8.018;2023-05-08T08:08:19;9.67;;;8.00;;
6987;SDS011;3534;49.960;8.018;2023-05-08T08:10:46;11.80;;;8.50;;
6987;SDS011;3534;49.960;8.018;2023-05-08T08:13:13;13.73;;;8.20;;
6987;SDS011;3534;49.960;8.018;2023-05-08T08:15:41;9.53;;;8.60;;
6987;SDS011;3534;49.960;8.018;2023-05-08T08:18:08;9.13;;;6.90;;
6987;SDS011;3534;49.960;8.018;2023-05-08T08:20:34;8.10;;;7.30;;
6987;SDS011;3534;49.960;8.018;2023-05-08T08:23:01;9.30;;;8.00;;
6987;SDS011;3534;49.960;8.018;2023-05-08T08:25:28;8.30;;;7.50;;
6987;SDS011;3534;49.960;8.018;2023-05-08T08:27:54;11.40;;;8.40;;
6987;SDS011;3534;49.960;8.018;2023-05-08T08:30:23;11.23;;;8.03;;
6987;SDS011;3534;49.960;8.018;2023-05-08T08:32:50;12.13;;;8.40;;
6987;SDS011;3534;49.960;8.018;2023-05-08T08:35:17;10.90;;;8.30;;
6987;SDS011;3534;49.960;8.018;2023-05-08T08:37:43;9.30;;;8.33;;
6987;SDS011;3534;49.960;8.018;2023-05-08T08:40:10;10.30;;;9.20;;
6987;SDS011;3534;49.960;8.018;2023-05-08T08:42:37;10.70;;;9.60;;
6987;SDS011;3534;49.960;8.018;2023-05-08T08:45:05;13.07;;;9.93;;
6987;SDS011;3534;49.960;8.018;2023-05-08T08:47:34;13.10;;;9.07;;
6987;SDS011;3534;49.960;8.018;2023-05-08T08:50:02;11.07;;;9.23;;
6987;SDS011;3534;49.960;8.018;2023-05-08T08:52:30;14.70;;;8.30;;
6987;SDS011;3534;49.960;8.018;2023-05-08T08:55:04;9.90;;;8.13;;
6987;SDS011;3534;49.960;8.018;2023-05-08T08:57:35;13.47;;;10.63;;
6987;SDS011;3534;49.960;8.018;2023-05-08T09:00:05;11.53;;;8.20;;
6987;SDS011;3534;49.960;8.018;2023-05-08T09:02:36;9.03;;;8.10;;
6987;SDS011;3534;49.960;8.018;2023-05-08T09:05:03;11.20;;;8.60;;
6987;SDS011;3534;49.960;8.018;2023-05-08T09:07:30;15.90;;;9.40;;
6987;SDS011;3534;49.960;8.018;2023-05-08T09:09:58;11.73;;;8.40;;
6987;SDS011;3534;49.960;8.018;2023-05-08T09:12:25;11.37;;;8.67;;
6987;SDS011;3534;49.960;8.018;2023-05-08T09:14:52;9.80;;;8.57;;
6987;SDS011;3534;49.960;8.018;2023-05-08T09:17:19;15.83;;;8.80;;
6987;SDS011;3534;49.960;8.018;2023-05-08T09:19:48;13.50;;;8.50;;
6987;SDS011;3534;49.960;8.018;2023-05-08T09:22:15;12.43;;;8.77;;
6987;SDS011;3534;49.960;8.018;2023-05-08T09:24:53;10.93;;;9.00;;
6987;SDS011;3534;49.960;8.018;2023-05-08T09:27:21;10.20;;;8.47;;
6987;SDS011;3534;49.960;8.018;2023-05-08T09:29:59;10.33;;;9.23;;
6987;SDS011;3534;49.960;8.018;2023-05-08T09:32:27;13.20;;;9.07;;
6987;SDS011;3534;49.960;8.018;2023-05-08T09:34:55;9.90;;;8.47;;
6987;SDS011;3534;49.960;8.018;2023-05-08T09:37:22;9.47;;;7.97;;
6987;SDS011;3534;49.960;8.018;2023-05-08T09:39:50;14.80;;;8.60;;
6987;SDS011;3534;49.960;8.018;2023-05-08T09:42:17;10.33;;;9.23;;
6987;SDS011;3534;49.960;8.018;2023-05-08T09:44:44;10.37;;;8.80;;
6987;SDS011;3534;49.960;8.018;2023-05-08T09:47:12;10.20;;;9.20;;
6987;SDS011;3534;49.960;8.018;2023-05-08T09:49:44;9.50;;;8.50;;
6987;SDS011;3534;49.960;8.018;2023-05-08T09:52:23;11.67;;;9.20;;
6987;SDS011;3534;49.960;8.018;2023-05-08T09:54:55;9.77;;;8.77;;
6987;SDS011;3534;49.960;8.018;2023-05-08T09:57:22;11.47;;;9.80;;
6987;SDS011;3534;49.960;8.018;2023-05-08T09:59:49;10.30;;;8.70;;
6987;SDS011;3534;49.960;8.018;2023-05-08T10:02:16;13.80;;;10.10;;
6987;SDS011;3534;49.960;8.018;2023-05-08T10:04:44;10.27;;;9.23;;
6987;SDS011;3534;49.960;8.018;2023-05-08T10:07:12;13.40;;;9.73;;
6987;SDS011;3534;49.960;8.018;2023-05-08T10:09:39;11.50;;;9.50;;
6987;SDS011;3534;49.960;8.018;2023-05-08T10:12:07;9.57;;;8.57;;
6987;SDS011;3534;49.960;8.018;2023-05-08T10:14:34;11.80;;;10.17;;
6987;SDS011;3534;49.960;8.018;2023-05-08T10:17:00;10.30;;;9.20;;
6987;SDS011;3534;49.960;8.018;2023-05-08T10:19:33;11.33;;;8.90;;
6987;SDS011;3534;49.960;8.018;2023-05-08T10:22:05;10.40;;;8.97;;
6987;SDS011;3534;49.960;8.018;2023-05-08T10:24:38;12.50;;;10.37;;
6987;SDS011;3534;49.960;8.018;2023-05-08T10:27:10;13.20;;;10.20;;
6987;SDS011;3534;49.960;8.018;2023-05-08T10:29:45;12.00;;;10.60;;
6987;SDS011;3534;49.960;8.018;2023-05-08T10:32:18;10.63;;;9.53;;
6987;SDS011;3534;49.960;8.018;2023-05-08T10:34:45;11.90;;;9.37;;
6987;SDS011;3534;49.960;8.018;2023-05-08T10:37:17;11.60;;;10.40;;
6987;SDS011;3534;49.960;8.018;2023-05-08T10:39:45;11.97;;;10.37;;
6987;SDS011;3534;49.960;8.018;2023-05-08T10:42:13;12.60;;;10.33;;
6987;SDS011;3534;49.960;8.018;2023-05-08T10:44:39;19.17;;;10.70;;
6987;SDS011;3534;49.960;8.018;2023-05-08T10:47:07;11.30;;;9.57;;
6987;SDS011;3534;49.960;8.018;2023-05-08T10:49:41;11.60;;;10.07;;
6987;SDS011;3534;49.960;8.018;2023-05-08T10:52:14;14.47;;;10.20;;
6987;SDS011;3534;49.960;8.018;2023-05-08T10:57:46;11.90;;;10.67;;
6987;SDS011;3534;49.960;8.018;2023-05-08T11:00:30;13.80;;;10.80;;
6987;SDS011;3534;49.960;8.018;2023-05-08T11:03:03;12.23;;;10.93;;
6987;SDS011;3534;49.960;8.018;2023-05-08T11:05:36;12.47;;;10.57;;
6987;SDS011;3534;49.960;8.018;2023-05-08T11:08:13;13.43;;;10.73;;
6987;SDS011;3534;49.960;8.018;2023-05-08T11:10:41;12.60;;;10.57;;
6987;SDS011;3534;49.960;8.018;2023-05-08T11:13:10;15.60;;;11.47;;
6987;SDS011;3534;49.960;8.018;2023-05-08T11:15:37;12.17;;;10.87;;
6987;SDS011;3534;49.960;8.018;2023-05-08T11:18:05;13.50;;;11.20;;
6987;SDS011;3534;49.960;8.018;2023-05-08T11:20:38;17.00;;;11.10;;
6987;SDS011;3534;49.960;8.018;2023-05-08T11:23:19;11.67;;;10.47;;
6987;SDS011;3534;49.960;8.018;2023-05-08T11:25:48;11.97;;;10.57;;
6987;SDS011;3534;49.960;8.018;2023-05-08T11:28:25;13.63;;;12.17;;
6987;SDS011;3534;49.960;8.018;2023-05-08T11:30:52;13.43;;;12.10;;
6987;SDS011;3534;49.960;8.018;2023-05-08T11:33:19;19.23;;;13.23;;
6987;SDS011;3534;49.960;8.018;2023-05-08T11:35:47;17.30;;;13.20;;
6987;SDS011;3534;49.960;8.018;2023-05-08T11:38:25;17.70;;;12.53;;
6987;SDS011;3534;49.960;8.018;2023-05-08T11:40:55;15.57;;;12.37;;
6987;SDS011;3534;49.960;8.018;2023-05-08T11:43:30;16.87;;;13.10;;
6987;SDS011;3534;49.960;8.018;2023-05-08T11:46:12;17.73;;;13.07;;
6987;SDS011;3534;49.960;8.018;2023-05-08T11:48:40;13.77;;;11.47;;
6987;SDS011;3534;49.960;8.018;2023-05-08T11:51:07;17.13;;;11.27;;
6987;SDS011;3534;49.960;8.018;2023-05-08T11:53:34;15.93;;;14.23;;
6987;SDS011;3534;49.960;8.018;2023-05-08T11:56:03;15.17;;;13.07;;
6987;SDS011;3534;49.960;8.018;2023-05-08T11:58:30;15.43;;;13.50;;
6987;SDS011;3534;49.960;8.018;2023-05-08T12:00:57;18.27;;;13.50;;
6987;SDS011;3534;49.960;8.018;2023-05-08T12:03:24;19.80;;;14.10;;
6987;SDS011;3534;49.960;8.018;2023-05-08T12:05:50;15.30;;;12.83;;
6987;SDS011;3534;49.960;8.018;2023-05-08T12:08:21;18.43;;;12.50;;
6987;SDS011;3534;49.960;8.018;2023-05-08T12:10:48;15.77;;;12.97;;
6987;SDS011;3534;49.960;8.018;2023-05-08T12:13:18;14.40;;;12.33;;
6987;SDS011;3534;49.960;8.018;2023-05-08T12:15:46;22.93;;;15.77;;
6987;SDS011;3534;49.960;8.018;2023-05-08T12:18:14;17.27;;;13.53;;
6987;SDS011;3534;49.960;8.018;2023-05-08T12:20:41;17.17;;;13.97;;
6987;SDS011;3534;49.960;8.018;2023-05-08T12:23:08;15.23;;;13.63;;
6987;SDS011;3534;49.960;8.018;2023-05-08T12:25:35;18.40;;;13.87;;
6987;SDS011;3534;49.960;8.018;2023-05-08T12:28:03;16.83;;;13.60;;
6987;SDS011;3534;49.960;8.018;2023-05-08T12:30:32;17.80;;;14.20;;
6987;SDS011;3534;49.960;8.018;2023-05-08T12:32:59;18.07;;;13.10;;
6987;SDS011;3534;49.960;8.018;2023-05-08T12:35:27;25.50;;;16.33;;
6987;SDS011;3534;49.960;8.018;2023-05-08T12:37:54;20.67;;;14.70;;
6987;SDS011;3534;49.960;8.018;2023-05-08T12:40:27;19.27;;;13.47;;
6987;SDS011;3534;49.960;8.018;2023-05-08T12:42:55;16.33;;;12.93;;
6987;SDS011;3534;49.960;8.018;2023-05-08T12:45:23;19.37;;;14.20;;
6987;SDS011;3534;49.960;8.018;2023-05-08T12:47:56;15.57;;;13.50;;
6987;SDS011;3534;49.960;8.018;2023-05-08T12:50:24;17.93;;;13.90;;
6987;SDS011;3534;49.960;8.018;2023-05-08T12:52:51;13.90;;;12.10;;
6987;SDS011;3534;49.960;8.018;2023-05-08T12:55:22;15.23;;;13.57;;
6987;SDS011;3534;49.960;8.018;2023-05-08T12:57:50;14.83;;;11.60;;
6987;SDS011;3534;49.960;8.018;2023-05-08T13:00:25;18.97;;;14.50;;
6987;SDS011;3534;49.960;8.018;2023-05-08T13:03:02;18.63;;;13.90;;
6987;SDS011;3534;49.960;8.018;2023-05-08T13:05:29;14.30;;;12.70;;
6987;SDS011;3534;49.960;8.018;2023-05-08T13:07:59;16.20;;;14.13;;
6987;SDS011;3534;49.960;8.018;2023-05-08T13:13:09;16.83;;;12.83;;
6987;SDS011;3534;49.960;8.018;2023-05-08T13:15:35;14.57;;;12.00;;
6987;SDS011;3534;49.960;8.018;2023-05-08T13:18:03;13.77;;;12.33;;
6987;SDS011;3534;49.960;8.018;2023-05-08T13:20:31;16.77;;;13.10;;
6987;SDS011;3534;49.960;8.018;2023-05-08T13:22:57;14.33;;;12.37;;
6987;SDS011;3534;49.960;8.018;2023-05-08T13:25:24;14.90;;;13.20;;
6987;SDS011;3534;49.960;8.018;2023-05-08T13:27:51;14.23;;;12.33;;
6987;SDS011;3534;49.960;8.018;2023-05-08T13:30:17;17.73;;;13.27;;
6987;SDS011;3534;49.960;8.018;2023-05-08T13:32:46;14.90;;;12.57;;
6987;SDS011;3534;49.960;8.018;2023-05-08T13:35:14;23.23;;;13.63;;
6987;SDS011;3534;49.960;8.018;2023-05-08T13:37:40;19.17;;;12.43;;
6987;SDS011;3534;49.960;8.018;2023-05-08T13:40:07;14.30;;;12.90;;
6987;SDS011;3534;49.960;8.018;2023-05-08T13:42:34;16.67;;;12.20;;
6987;SDS011;3534;49.960;8.018;2023-05-08T13:45:01;13.80;;;12.33;;
6987;SDS011;3534;49.960;8.018;2023-05-08T13:47:28;17.67;;;13.07;;
6987;SDS011;3534;49.960;8.018;2023-05-08T13:49:55;16.33;;;12.23;;
6987;SDS011;3534;49.960;8.018;2023-05-08T13:52:23;17.70;;;12.37;;
6987;SDS011;3534;49.960;8.018;2023-05-08T13:54:53;16.20;;;12.77;;
6987;SDS011;3534;49.960;8.018;2023-05-08T13:57:20;14.50;;;11.37;;
6987;SDS011;3534;49.960;8.018;2023-05-08T13:59:46;14.30;;;12.03;;
6987;SDS011;3534;49.960;8.018;2023-05-08T14:02:13;16.63;;;12.67;;
6987;SDS011;3534;49.960;8.018;2023-05-08T14:04:40;19.20;;;12.83;;
6987;SDS011;3534;49.960;8.018;2023-05-08T14:07:07;13.57;;;10.50;;
6987;SDS011;3534;49.960;8.018;2023-05-08T14:09:34;17.30;;;12.47;;
6987;SDS011;3534;49.960;8.018;2023-05-08T14:12:01;14.80;;;12.53;;
6987;SDS011;3534;49.960;8.018;2023-05-08T14:14:28;13.63;;;12.23;;
6987;SDS011;3534;49.960;8.018;2023-05-08T14:16:55;13.63;;;12.20;;
6987;SDS011;3534;49.960;8.018;2023-05-08T14:19:21;14.03;;;11.97;;
6987;SDS011;3534;49.960;8.018;2023-05-08T14:21:48;16.80;;;12.73;;
6987;SDS011;3534;49.960;8.018;2023-05-08T14:24:15;13.27;;;11.87;;
6987;SDS011;3534;49.960;8.018;2023-05-08T14:26:43;12.30;;;10.77;;
6987;SDS011;3534;49.960;8.018;2023-05-08T14:29:10;14.13;;;12.43;;
6987;SDS011;3534;49.960;8.018;2023-05-08T14:31:36;15.97;;;13.83;;
6987;SDS011;3534;49.960;8.018;2023-05-08T14:34:03;16.73;;;13.00;;
6987;SDS011;3534;49.960;8.018;2023-05-08T14:36:30;12.53;;;11.17;;
6987;SDS011;3534;49.960;8.018;2023-05-08T14:38:56;15.70;;;12.43;;
6987;SDS011;3534;49.960;8.018;2023-05-08T14:41:26;14.80;;;11.43;;
6987;SDS011;3534;49.960;8.018;2023-05-08T14:43:54;18.50;;;11.30;;
6987;SDS011;3534;49.960;8.018;2023-05-08T14:46:21;14.43;;;12.60;;
6987;SDS011;3534;49.960;8.018;2023-05-08T14:48:48;22.70;;;11.97;;
6987;SDS011;3534;49.960;8.018;2023-05-08T14:51:15;13.13;;;11.33;;
6987;SDS011;3534;49.960;8.018;2023-05-08T14:53:43;14.03;;;11.90;;
6987;SDS011;3534;49.960;8.018;2023-05-08T14:56:09;14.37;;;11.37;;
6987;SDS011;3534;49.960;8.018;2023-05-08T14:58:37;15.90;;;11.90;;
6987;SDS011;3534;49.960;8.018;2023-05-08T15:01:05;12.17;;;10.90;;
6987;SDS011;3534;49.960;8.018;2023-05-08T15:03:32;18.67;;;11.87;;
6987;SDS011;3534;49.960;8.018;2023-05-08T15:05:59;13.90;;;12.40;;
6987;SDS011;3534;49.960;8.018;2023-05-08T15:08:25;15.73;;;12.40;;
6987;SDS011;3534;49.960;8.018;2023-05-08T15:10:52;19.73;;;11.37;;
6987;SDS011;3534;49.960;8.018;2023-05-08T15:13:19;13.10;;;11.40;;
6987;SDS011;3534;49.960;8.018;2023-05-08T15:15:45;14.57;;;11.90;;
6987;SDS011;3534;49.960;8.018;2023-05-08T15:18:13;13.63;;;12.23;;
6987;SDS011;3534;49.960;8.018;2023-05-08T15:20:40;14.93;;;12.10;;